Time;durP1;ratioP1;P1;durP2;ratioP2;P2;SDS_P1;SDS_P2;PMS_P1;PMS_P2;Temp;Humidity;BMP_temperature;BMP_pressure;BME280_temperature;BME280_humidity;BME280_pressure;Samples;Min_cycle;Max_cycle;Signal;HPM_P1;HPM_P2
2023/08/14 00:00:47;;;;;;;8.30;3.72;;;;;;;19.40;100.00;100388.84;5057663;28;20069;-71
2023/08/14 00:03:16;;;;;;;6.53;3.63;;;;;;;19.33;100.00;100384.13;5043716;28;20975;-70
2023/08/14 00:05:44;;;;;;;9.75;4.25;;;;;;;19.39;100.00;100389.81;5074267;28;20060;-72
2023/08/14 00:08:12;;;;;;;6.30;3.88;;;;;;;19.44;100.00;100384.94;5056256;28;20588;-72
2023/08/14 00:10:44;;;;;;;7.40;4.10;;;;;;;19.54;100.00;100385.03;5056899;28;20048;-72
2023/08/14 00:13:14;;;;;;;6.70;3.35;;;;;;;19.58;100.00;100387.34;5055932;28;20041;-71
2023/08/14 00:15:42;;;;;;;7.47;3.97;;;;;;;19.57;100.00;100387.47;5055388;28;20039;-73
2023/08/14 00:18:10;;;;;;;6.80;3.95;;;;;;;19.57;100.00;100390.16;5053936;28;20147;-71
2023/08/14 00:20:41;;;;;;;4.93;3.63;;;;;;;19.50;100.00;100395.19;5060265;28;20486;-73
2023/08/14 00:23:09;;;;;;;9.70;4.55;;;;;;;19.46;100.00;100395.53;5075588;28;20216;-71
2023/08/14 00:25:38;;;;;;;5.68;3.95;;;;;;;19.43;100.00;100387.75;5066682;28;20056;-70
2023/08/14 00:28:06;;;;;;;5.60;3.75;;;;;;;19.42;100.00;100394.94;5068916;28;20122;-70
2023/08/14 00:30:34;;;;;;;8.48;4.15;;;;;;;19.42;100.00;100397.63;5085367;28;20076;-72
2023/08/14 00:33:02;;;;;;;7.00;3.92;;;;;;;19.39;100.00;100405.94;5066152;28;20049;-70
2023/08/14 00:35:31;;;;;;;7.75;4.05;;;;;;;19.32;100.00;100401.22;5061460;28;20060;-71
2023/08/14 00:38:00;;;;;;;6.00;3.75;;;;;;;19.24;100.00;100396.47;5053674;28;20041;-71
2023/08/14 00:40:28;;;;;;;7.38;4.10;;;;;;;19.21;100.00;100394.88;5053963;28;20098;-71
2023/08/14 00:42:56;;;;;;;7.25;3.88;;;;;;;19.15;100.00;100392.72;5073289;28;20059;-70
2023/08/14 00:45:24;;;;;;;6.70;4.22;;;;;;;19.10;100.00;100388.72;5068960;28;20045;-71
2023/08/14 00:48:11;;;;;;;5.22;3.85;;;;;;;19.10;100.00;100392.25;5070498;28;20044;-71
2023/08/14 00:50:39;;;;;;;4.65;3.67;;;;;;;19.12;100.00;100392.13;5074633;28;20037;-71
2023/08/14 00:53:08;;;;;;;7.15;3.90;;;;;;;19.12;100.00;100398.34;5053776;28;20041;-72
2023/08/14 00:55:37;;;;;;;8.50;3.77;;;;;;;19.11;100.00;100387.72;5060318;28;20048;-73
2023/08/14 00:58:06;;;;;;;6.63;3.38;;;;;;;19.09;100.00;100390.53;5048486;28;20094;-72
2023/08/14 01:00:35;;;;;;;6.45;3.65;;;;;;;19.12;100.00;100395.66;5059113;28;20041;-71
2023/08/14 01:03:04;;;;;;;4.95;3.75;;;;;;;19.11;100.00;100385.91;5077220;28;20109;-71
2023/08/14 01:05:34;;;;;;;8.75;3.88;;;;;;;19.08;100.00;100379.94;5062135;28;20045;-71
2023/08/14 01:08:03;;;;;;;6.30;3.97;;;;;;;19.07;100.00;100381.75;5038570;28;20057;-71
2023/08/14 01:10:45;;;;;;;6.43;3.67;;;;;;;19.06;100.00;100369.31;5046707;28;20067;-72
2023/08/14 01:13:23;;;;;;;7.35;3.90;;;;;;;19.07;100.00;100365.66;5043474;28;20044;-72
2023/08/14 01:15:55;;;;;;;7.85;3.88;;;;;;;19.04;100.00;100365.94;5048553;28;20553;-72
2023/08/14 01:18:27;;;;;;;6.90;3.95;;;;;;;19.08;100.00;100371.88;5057334;28;20136;-72
2023/08/14 01:21:10;;;;;;;6.72;3.75;;;;;;;19.04;100.00;100360.56;5054172;28;20048;-72
2023/08/14 01:23:50;;;;;;;6.20;3.70;;;;;;;19.12;100.00;100367.97;5045321;28;20099;-72
2023/08/14 01:26:19;;;;;;;5.10;3.78;;;;;;;19.14;100.00;100374.06;5056694;28;20508;-71
2023/08/14 01:28:48;;;;;;;8.15;3.60;;;;;;;19.12;100.00;100365.28;5054698;28;20044;-70
2023/08/14 01:31:16;;;;;;;7.30;3.83;;;;;;;19.15;100.00;100367.72;5059625;28;20045;-72
2023/08/14 01:33:44;;;;;;;6.68;3.65;;;;;;;19.13;100.00;100362.47;5053426;28;20459;-72
2023/08/14 01:36:18;;;;;;;7.75;3.40;;;;;;;19.07;100.00;100365.66;5056262;28;20543;-71
2023/08/14 01:38:54;;;;;;;6.75;3.85;;;;;;;19.06;100.00;100361.25;5068504;28;20497;-72
2023/08/14 01:41:29;;;;;;;7.57;3.58;;;;;;;19.05;100.00;100362.25;5059923;28;20049;-71
2023/08/14 01:44:00;;;;;;;10.25;3.92;;;;;;;19.02;100.00;100359.84;5068052;28;20048;-72
2023/08/14 01:46:32;;;;;;;6.70;3.20;;;;;;;19.04;100.00;100354.34;5075731;28;20048;-71
2023/08/14 01:49:02;;;;;;;6.95;3.65;;;;;;;19.06;100.00;100363.09;5048304;28;20056;-71
2023/08/14 01:51:33;;;;;;;5.60;3.35;;;;;;;19.07;100.00;100365.66;5061556;28;20050;-70
2023/08/14 01:54:00;;;;;;;;;;;;;;;19.08;100.00;100370.03;5049304;28;20040;-71
2023/08/14 01:56:30;;;;;;;5.60;3.15;;;;;;;19.06;100.00;100353.22;5049642;28;19963;-71
2023/08/14 01:58:58;;;;;;;5.97;3.63;;;;;;;19.04;100.00;100347.16;5057041;28;20126;-72
2023/08/14 02:01:27;;;;;;;5.57;3.47;;;;;;;18.98;100.00;100344.97;5056572;28;20041;-72
2023/08/14 02:03:55;;;;;;;6.53;3.88;;;;;;;18.95;100.00;100341.66;5060668;28;20114;-70
2023/08/14 02:06:27;;;;;;;6.40;4.10;;;;;;;19.00;100.00;100345.69;5053377;28;20576;-70
2023/08/14 02:08:55;;;;;;;7.20;3.97;;;;;;;18.96;100.00;100338.88;5040489;28;20049;-71
2023/08/14 02:11:23;;;;;;;7.30;4.20;;;;;;;18.94;100.00;100338.13;5057571;28;20053;-73
2023/08/14 02:13:52;;;;;;;6.22;4.18;;;;;;;18.94;100.00;100330.09;5047032;28;20037;-71
2023/08/14 02:16:20;;;;;;;7.53;3.60;;;;;;;18.87;100.00;100321.72;5066382;28;20056;-71
2023/08/14 02:18:49;;;;;;;5.63;3.88;;;;;;;18.88;100.00;100336.81;5068663;28;20040;-72
2023/08/14 02:21:17;;;;;;;7.75;3.55;;;;;;;18.83;100.00;100339.03;5058392;28;20037;-71
2023/08/14 02:23:45;;;;;;;6.45;4.10;;;;;;;18.82;100.00;100336.47;5064500;28;20045;-72
2023/08/14 02:26:12;;;;;;;5.97;3.78;;;;;;;18.79;100.00;100331.34;5057409;28;20308;-72
2023/08/14 02:28:42;;;;;;;6.07;3.72;;;;;;;18.72;100.00;100322.97;5056168;28;20128;-72
2023/08/14 02:31:14;;;;;;;5.87;3.70;;;;;;;18.72;100.00;100322.97;5054827;28;20041;-71
2023/08/14 02:33:42;;;;;;;;;;;;;;;18.71;100.00;100317.72;5059937;28;20048;-71
2023/08/14 02:36:10;;;;;;;4.95;4.07;;;;;;;18.74;100.00;100318.31;5052304;28;19920;-70
2023/08/14 02:38:39;;;;;;;6.97;4.05;;;;;;;18.76;100.00;100315.50;5062847;28;20044;-72
2023/08/14 02:41:07;;;;;;;6.75;3.80;;;;;;;18.74;100.00;100315.63;5058862;28;20131;-72
2023/08/14 02:43:35;;;;;;;9.95;4.32;;;;;;;18.69;100.00;100314.31;5078137;28;20052;-72
2023/08/14 02:46:04;;;;;;;6.50;3.60;;;;;;;18.61;100.00;100314.06;5044989;28;20148;-70
2023/08/14 02:48:34;;;;;;;5.50;3.95;;;;;;;18.60;100.00;100315.03;5063811;28;20053;-71
2023/08/14 02:51:02;;;;;;;7.45;3.78;;;;;;;18.54;100.00;100322.59;5061772;28;20778;-72
2023/08/14 02:53:32;;;;;;;6.25;3.55;;;;;;;18.55;100.00;100316.25;5065551;28;21417;-70
2023/08/14 02:56:00;;;;;;;4.80;3.67;;;;;;;18.55;100.00;100305.53;5052680;28;20135;-71
2023/08/14 02:58:30;;;;;;;5.05;3.88;;;;;;;18.67;100.00;100305.53;5054533;28;20053;-71
2023/08/14 03:01:00;;;;;;;4.65;3.30;;;;;;;18.74;100.00;100298.66;5061469;28;20087;-71
2023/08/14 03:03:29;;;;;;;5.78;3.45;;;;;;;18.76;100.00;100310.97;5055863;28;20036;-71
2023/08/14 03:06:00;;;;;;;5.65;4.10;;;;;;;18.73;100.00;100310.41;5055645;28;20059;-71
2023/08/14 03:08:28;;;;;;;9.23;4.07;;;;;;;18.71;100.00;100301.63;5058304;28;20082;-71
2023/08/14 03:10:58;;;;;;;6.13;3.85;;;;;;;18.67;100.00;100289.44;5057606;28;20059;-71
2023/08/14 03:13:26;;;;;;;8.15;3.38;;;;;;;18.71;100.00;100285.53;5056582;28;20041;-72
2023/08/14 03:15:55;;;;;;;6.47;3.83;;;;;;;18.81;100.00;100283.78;5055827;28;20037;-70
2023/08/14 03:18:23;;;;;;;5.40;3.50;;;;;;;18.76;100.00;100280.63;5058341;28;20128;-70
2023/08/14 03:20:51;;;;;;;4.93;3.40;;;;;;;18.74;100.00;100287.94;5053197;28;20058;-70
2023/08/14 03:23:20;;;;;;;6.40;3.50;;;;;;;18.65;100.00;100273.47;5061258;28;20110;-71
2023/08/14 03:25:50;;;;;;;9.97;3.77;;;;;;;18.69;100.00;100285.66;5053682;28;20051;-71
2023/08/14 03:28:19;;;;;;;4.43;3.35;;;;;;;18.67;100.00;100297.50;5056766;28;20105;-71
2023/08/14 03:30:49;;;;;;;8.60;3.42;;;;;;;18.64;100.00;100293.22;5061379;28;20044;-72
2023/08/14 03:33:18;;;;;;;7.25;3.03;;;;;;;18.65;100.00;100302.97;5034663;28;20045;-71
2023/08/14 03:35:48;;;;;;;6.88;3.35;;;;;;;18.62;100.00;100297.00;5053525;28;20071;-72
2023/08/14 03:38:20;;;;;;;5.28;3.42;;;;;;;18.62;100.00;100300.53;5063074;28;20047;-71
2023/08/14 03:40:48;;;;;;;6.65;3.53;;;;;;;18.61;100.00;100301.50;5056500;28;20112;-71
2023/08/14 03:43:19;;;;;;;5.15;3.50;;;;;;;18.60;100.00;100297.13;5068496;28;20446;-71
2023/08/14 03:45:48;;;;;;;5.65;3.33;;;;;;;18.66;100.00;100295.78;5055701;28;20044;-71
2023/08/14 03:48:17;;;;;;;7.43;3.63;;;;;;;18.67;100.00;100292.97;5063969;28;20063;-71
2023/08/14 03:50:45;;;;;;;4.95;3.10;;;;;;;18.60;100.00;100280.19;5052991;28;20076;-71
2023/08/14 03:53:16;;;;;;;7.47;3.80;;;;;;;18.55;100.00;100278.72;5026479;28;20548;-71
2023/08/14 03:55:46;;;;;;;7.65;3.60;;;;;;;18.55;100.00;100284.09;5051541;28;20047;-71
2023/08/14 03:58:14;;;;;;;7.25;3.40;;;;;;;18.56;100.00;100287.63;5038425;28;20068;-71
2023/08/14 04:00:46;;;;;;;6.97;3.15;;;;;;;18.48;100.00;100290.91;5055853;28;20041;-72
2023/08/14 04:03:15;;;;;;;4.30;2.92;;;;;;;18.49;100.00;100299.81;5057692;28;20036;-72
2023/08/14 04:05:46;;;;;;;5.55;3.33;;;;;;;18.45;100.00;100287.63;5048742;28;20048;-72
2023/08/14 04:08:14;;;;;;;;;;;;;;;18.53;100.00;100294.09;5054094;28;20041;-72
2023/08/14 04:10:42;;;;;;;7.40;3.15;;;;;;;18.53;100.00;100296.75;5074464;28;19920;-71
2023/08/14 04:13:11;;;;;;;7.10;3.70;;;;;;;18.57;100.00;100302.72;5056190;28;20071;-72
2023/08/14 04:15:42;;;;;;;6.28;3.50;;;;;;;18.52;100.00;100297.75;5053289;28;20041;-72
2023/08/14 04:18:11;;;;;;;4.63;3.47;;;;;;;18.55;100.00;100302.84;5049070;28;20151;-71
2023/08/14 04:20:39;;;;;;;7.22;3.88;;;;;;;18.56;100.00;100307.25;5058369;28;20557;-72
2023/08/14 04:23:07;;;;;;;6.95;3.55;;;;;;;18.53;100.00;100290.53;5050460;28;20047;-72
2023/08/14 04:25:35;;;;;;;4.22;3.47;;;;;;;18.52;100.00;100286.16;5038263;28;20045;-73
2023/08/14 04:28:07;;;;;;;10.07;4.13;;;;;;;18.55;100.00;100286.75;5055874;28;20120;-72
2023/08/14 04:30:36;;;;;;;5.03;3.45;;;;;;;18.54;100.00;100287.75;5055073;28;20068;-70
2023/08/14 04:33:05;;;;;;;7.35;3.80;;;;;;;18.53;100.00;100283.34;5057180;28;20041;-71
2023/08/14 04:35:32;;;;;;;7.70;3.88;;;;;;;18.53;100.00;100285.19;5057508;28;20118;-71
2023/08/14 04:38:04;;;;;;;7.57;3.83;;;;;;;18.50;100.00;100280.06;5056038;28;20052;-71
2023/08/14 04:40:34;;;;;;;5.97;3.67;;;;;;;18.49;100.00;100278.34;5055621;28;20053;-72
2023/08/14 04:43:02;;;;;;;5.20;3.15;;;;;;;18.51;100.00;100289.81;5044318;28;20102;-73
2023/08/14 04:45:30;;;;;;;5.53;3.55;;;;;;;18.46;100.00;100279.44;5053700;28;20049;-72
2023/08/14 04:48:00;;;;;;;6.78;3.33;;;;;;;18.55;100.00;100288.59;5046105;28;20515;-71
2023/08/14 04:50:28;;;;;;;6.38;3.75;;;;;;;18.60;100.00;100285.53;5055879;28;20638;-72
2023/08/14 04:52:56;;;;;;;7.40;3.53;;;;;;;18.58;100.00;100272.22;5057009;28;20076;-71
2023/08/14 04:55:25;;;;;;;5.85;3.42;;;;;;;18.75;100.00;100286.97;5057730;28;20052;-71
2023/08/14 04:57:54;;;;;;;7.75;3.17;;;;;;;18.79;100.00;100296.47;5056327;28;20048;-71
2023/08/14 05:00:26;;;;;;;6.90;3.35;;;;;;;18.82;100.00;100296.22;5037995;28;20093;-70
2023/08/14 05:02:58;;;;;;;7.32;3.83;;;;;;;18.83;100.00;100303.28;5069785;28;20202;-72
2023/08/14 05:05:27;;;;;;;5.97;3.33;;;;;;;18.80;100.00;100300.88;5056929;28;20409;-71
2023/08/14 05:07:55;;;;;;;6.95;3.72;;;;;;;18.82;100.00;100296.22;5050104;28;20070;-71
2023/08/14 05:10:23;;;;;;;6.38;3.40;;;;;;;18.85;100.00;100301.34;5059340;28;20045;-73
2023/08/14 05:12:51;;;;;;;7.00;3.47;;;;;;;18.86;100.00;100301.22;5062324;28;20044;-72
2023/08/14 05:15:20;;;;;;;7.38;3.58;;;;;;;18.83;100.00;100289.88;5027291;28;20522;-70
2023/08/14 05:17:48;;;;;;;6.40;3.15;;;;;;;18.98;100.00;100306.53;5054457;28;20048;-71
2023/08/14 05:20:16;;;;;;;7.22;3.80;;;;;;;19.03;100.00;100293.59;5047760;28;20044;-70
2023/08/14 05:22:46;;;;;;;4.03;3.08;;;;;;;19.07;100.00;100285.13;5056206;28;20091;-72
2023/08/14 05:25:15;;;;;;;9.63;3.85;;;;;;;19.03;100.00;100272.97;5064729;28;20090;-72
2023/08/14 05:28:00;;;;;;;5.20;3.05;;;;;;;19.16;100.00;100289.75;5049246;28;20052;-71
2023/08/14 05:30:28;;;;;;;5.35;3.15;;;;;;;19.09;100.00;100280.50;5062882;28;20061;-71
2023/08/14 05:32:56;;;;;;;6.30;3.67;;;;;;;19.22;100.00;100288.34;5058007;28;20143;-71
2023/08/14 05:35:25;;;;;;;6.50;2.90;;;;;;;19.25;100.00;100293.47;5055222;28;20049;-71
2023/08/14 05:37:56;;;;;;;5.35;3.17;;;;;;;19.25;100.00;100290.78;5055788;28;20049;-72
2023/08/14 05:40:25;;;;;;;5.70;2.90;;;;;;;19.32;100.00;100288.44;5056074;28;20049;-72
2023/08/14 05:43:04;;;;;;;6.45;3.20;;;;;;;19.36;100.00;100296.09;5059985;28;20044;-71
2023/08/14 05:45:32;;;;;;;7.15;3.20;;;;;;;19.38;100.00;100299.50;5055245;28;20063;-72
2023/08/14 05:48:02;;;;;;;9.00;3.30;;;;;;;19.40;100.00;100296.69;5048306;28;20175;-72
2023/08/14 05:50:31;;;;;;;6.25;3.10;;;;;;;19.38;100.00;100293.28;5065573;28;20405;-72
2023/08/14 05:53:04;;;;;;;7.85;3.40;;;;;;;19.36;100.00;100292.59;5057385;28;20060;-71
2023/08/14 05:55:33;;;;;;;7.28;3.25;;;;;;;19.40;100.00;100302.06;5068609;28;20025;-71
2023/08/14 05:58:02;;;;;;;6.13;3.05;;;;;;;19.44;100.00;100308.88;5066488;28;20048;-71
2023/08/14 06:00:31;;;;;;;7.57;3.38;;;;;;;19.46;100.00;100296.19;5065265;28;20048;-72
2023/08/14 06:03:00;;;;;;;8.52;3.20;;;;;;;19.47;100.00;100289.81;5057638;28;20049;-72
2023/08/14 06:05:29;;;;;;;3.90;2.80;;;;;;;19.53;100.00;100298.22;5056369;28;20106;-72
2023/08/14 06:07:59;;;;;;;4.35;2.97;;;;;;;19.62;100.00;100293.91;5055195;28;20063;-71
2023/08/14 06:10:29;;;;;;;6.55;2.90;;;;;;;19.67;100.00;100299.75;5059893;28;20484;-72
2023/08/14 06:12:58;;;;;;;6.40;3.10;;;;;;;19.60;100.00;100283.31;5060557;28;20569;-70
2023/08/14 06:15:26;;;;;;;5.60;3.10;;;;;;;19.78;100.00;100307.72;5061962;28;20032;-71
2023/08/14 06:17:56;;;;;;;;;;;;;;;19.79;100.00;100303.22;5057736;28;20041;-71
2023/08/14 06:20:24;;;;;;;8.55;3.13;;;;;;;19.76;100.00;100300.78;5048814;28;19929;-71
2023/08/14 06:22:52;;;;;;;7.28;3.63;;;;;;;19.73;100.00;100291.16;5044503;28;20044;-71
2023/08/14 06:25:20;;;;;;;5.70;3.17;;;;;;;19.81;100.00;100290.50;5057529;28;20457;-72
2023/08/14 06:27:51;;;;;;;7.60;3.03;;;;;;;19.99;100.00;100290.72;5054097;28;20040;-72
2023/08/14 06:30:20;;;;;;;6.90;3.25;;;;;;;20.14;100.00;100289.38;5061053;28;20046;-71
2023/08/14 06:32:49;;;;;;;6.28;3.13;;;;;;;20.28;100.00;100294.38;5069605;28;20056;-72
2023/08/14 06:35:17;;;;;;;5.93;3.33;;;;;;;20.42;100.00;100298.56;5056916;28;20037;-71
2023/08/14 06:37:45;;;;;;;6.60;3.33;;;;;;;20.54;100.00;100290.22;5057725;28;20050;-72
2023/08/14 06:40:13;;;;;;;10.93;3.45;;;;;;;20.74;100.00;100290.28;5057003;28;20049;-71
2023/08/14 06:42:42;;;;;;;6.32;3.38;;;;;;;20.82;100.00;100298.47;5051773;28;20103;-71
2023/08/14 06:45:11;;;;;;;7.05;3.30;;;;;;;20.79;100.00;100301.44;5056428;28;20037;-71
2023/08/14 06:47:45;;;;;;;6.20;3.20;;;;;;;20.73;100.00;100300.19;5031860;28;20059;-72
2023/08/14 06:50:15;;;;;;;5.93;3.00;;;;;;;20.68;100.00;100288.97;5056703;28;20505;-72
2023/08/14 06:52:43;;;;;;;3.78;2.92;;;;;;;20.64;100.00;100285.69;5055561;28;20101;-72
2023/08/14 06:55:11;;;;;;;7.45;3.42;;;;;;;20.69;100.00;100281.75;5045083;28;20136;-71
2023/08/14 06:57:41;;;;;;;6.65;3.15;;;;;;;20.85;100.00;100268.59;5052311;28;20116;-71
2023/08/14 07:00:13;;;;;;;8.57;3.15;;;;;;;21.32;100.00;100273.16;5056819;28;20477;-73
2023/08/14 07:02:46;;;;;;;4.53;3.15;;;;;;;21.81;100.00;100276.59;5055014;28;20122;-72
2023/08/14 07:05:15;;;;;;;5.85;2.97;;;;;;;22.37;100.00;100272.97;5054010;28;20150;-71
2023/08/14 07:07:43;;;;;;;6.90;2.90;;;;;;;22.85;100.00;100274.53;5051333;28;20154;-71
2023/08/14 07:10:11;;;;;;;7.43;2.80;;;;;;;23.11;100.00;100270.06;5061534;28;20065;-71
2023/08/14 07:12:38;;;;;;;15.48;4.38;;;;;;;23.38;100.00;100277.22;5075738;28;20047;-71
2023/08/14 07:15:10;;;;;;;6.18;2.78;;;;;;;23.73;100.00;100270.91;5070132;28;20604;-71
2023/08/14 07:17:40;;;;;;;8.23;2.88;;;;;;;23.62;100.00;100266.59;5057303;28;20056;-71
2023/08/14 07:20:09;;;;;;;15.25;4.15;;;;;;;23.37;100.00;100272.81;5055324;28;20268;-71
2023/08/14 07:22:38;;;;;;;6.30;2.90;;;;;;;23.04;100.00;100277.09;5051622;28;20037;-71
2023/08/14 07:25:08;;;;;;;4.75;2.65;;;;;;;22.75;100.00;100275.44;5051712;28;20669;-72
2023/08/14 07:27:36;;;;;;;9.02;2.88;;;;;;;22.63;100.00;100263.16;5046380;28;20498;-71
2023/08/14 07:30:06;;;;;;;6.05;2.85;;;;;;;22.69;100.00;100253.59;5054368;28;20063;-72
2023/08/14 07:32:35;;;;;;;7.43;2.85;;;;;;;22.88;100.00;100263.44;5046361;28;20740;-71
2023/08/14 07:35:05;;;;;;;4.57;2.30;;;;;;;22.92;100.00;100260.28;5058077;28;20045;-71
2023/08/14 07:37:34;;;;;;;3.72;2.28;;;;;;;23.24;100.00;100254.31;5025946;28;20049;-71
2023/08/14 07:40:02;;;;;;;6.13;2.50;;;;;;;23.69;100.00;100259.56;5053112;28;20056;-71
2023/08/14 07:42:30;;;;;;;6.05;2.55;;;;;;;24.05;100.00;100252.16;5049477;28;20132;-71
2023/08/14 07:44:58;;;;;;;5.13;2.58;;;;;;;24.41;100.00;100236.56;5054789;28;20052;-72
2023/08/14 07:47:27;;;;;;;5.55;2.78;;;;;;;24.72;100.00;100250.34;5047901;28;20048;-71
2023/08/14 07:49:55;;;;;;;6.38;2.65;;;;;;;25.01;100.00;100243.69;5041311;28;20090;-71
2023/08/14 07:52:25;;;;;;;7.10;2.90;;;;;;;25.34;100.00;100252.66;5054091;28;20037;-71
2023/08/14 07:54:53;;;;;;;5.25;2.70;;;;;;;25.51;100.00;100241.59;5054899;28;20505;-71
2023/08/14 07:57:21;;;;;;;4.20;2.60;;;;;;;25.55;100.00;100243.97;5051137;28;20087;-72
2023/08/14 07:59:49;;;;;;;6.13;2.65;;;;;;;25.55;96.27;100242.09;5050347;28;20422;-72
2023/08/14 08:02:17;;;;;;;4.40;2.60;;;;;;;25.74;92.58;100251.75;5059958;28;20083;-72
2023/08/14 08:04:45;;;;;;;3.33;2.45;;;;;;;25.97;94.43;100247.31;5051153;28;20045;-70
2023/08/14 08:07:14;;;;;;;11.15;2.80;;;;;;;26.65;90.61;100251.22;5056087;28;20041;-71
2023/08/14 08:09:43;;;;;;;5.22;2.95;;;;;;;27.10;81.70;100247.72;5050690;28;20493;-70
2023/08/14 08:12:11;;;;;;;3.97;2.10;;;;;;;27.58;83.36;100260.91;5035389;28;20036;-72
2023/08/14 08:14:38;;;;;;;3.28;2.30;;;;;;;27.63;81.93;100267.69;5053972;28;20052;-72
2023/08/14 08:17:08;;;;;;;5.30;2.38;;;;;;;27.15;80.73;100269.78;5049052;28;20029;-71
2023/08/14 08:19:37;;;;;;;6.45;2.50;;;;;;;26.37;88.04;100275.31;5044777;28;20402;-72
2023/08/14 08:22:05;;;;;;;3.33;2.58;;;;;;;25.84;91.98;100265.97;5058084;28;20047;-71
2023/08/14 08:24:33;;;;;;;5.13;2.53;;;;;;;25.69;94.71;100282.09;5056452;28;20049;-70
2023/08/14 08:27:02;;;;;;;4.22;2.50;;;;;;;25.41;96.97;100286.19;5059311;28;20052;-72
2023/08/14 08:29:30;;;;;;;4.78;2.42;;;;;;;25.41;98.81;100286.19;5057307;28;20049;-71
2023/08/14 08:31:58;;;;;;;5.70;2.40;;;;;;;25.39;100.00;100286.34;5050075;28;20056;-72
2023/08/14 08:34:26;;;;;;;3.08;2.40;;;;;;;25.28;100.00;100294.81;5059675;28;20523;-75
2023/08/14 08:36:54;;;;;;;6.20;2.70;;;;;;;25.24;100.00;100276.34;5065718;28;20037;-73
2023/08/14 08:39:22;;;;;;;4.10;2.70;;;;;;;25.63;100.00;100284.69;5043313;28;20071;-73
2023/08/14 08:41:49;;;;;;;5.28;2.30;;;;;;;26.11;94.70;100286.44;5064853;28;20037;-74
2023/08/14 08:44:24;;;;;;;6.07;2.90;;;;;;;26.36;92.93;100284.50;5064605;28;20037;-74
2023/08/14 08:46:53;;;;;;;3.38;2.47;;;;;;;26.45;92.36;100283.41;5059666;28;20044;-75
2023/08/14 08:49:21;;;;;;;4.90;2.20;;;;;;;26.82;89.73;100283.56;5068231;28;20041;-74
2023/08/14 08:51:53;;;;;;;5.68;2.67;;;;;;;26.92;86.13;100259.69;5058272;28;20056;-74
2023/08/14 08:54:22;;;;;;;5.10;2.72;;;;;;;26.89;85.88;100287.25;5039193;28;20073;-72
2023/08/14 08:56:50;;;;;;;6.18;2.90;;;;;;;26.77;84.77;100294.09;5056348;28;20569;-74
2023/08/14 08:59:20;;;;;;;3.53;2.67;;;;;;;26.69;85.91;100290.59;5054639;28;20071;-73
2023/08/14 09:01:49;;;;;;;3.58;2.75;;;;;;;26.50;89.87;100290.00;5070438;28;20041;-73
2023/08/14 09:04:17;;;;;;;4.55;2.75;;;;;;;26.26;89.32;100259.41;5055073;28;20047;-73
2023/08/14 09:06:46;;;;;;;6.32;3.10;;;;;;;26.30;90.76;100293.31;5057859;28;20156;-74
2023/08/14 09:09:16;;;;;;;6.30;2.90;;;;;;;26.24;91.06;100289.44;5052982;28;20102;-73
2023/08/14 09:11:44;;;;;;;5.07;2.58;;;;;;;26.28;91.25;100292.66;5058644;28;20272;-74
2023/08/14 09:14:15;;;;;;;4.63;2.97;;;;;;;26.41;90.96;100304.66;5060172;28;20044;-73
2023/08/14 09:16:45;;;;;;;5.35;2.55;;;;;;;26.85;87.38;100301.38;5052697;28;20051;-75
2023/08/14 09:19:16;;;;;;;4.28;2.40;;;;;;;27.13;85.77;100308.00;5061661;28;20098;-74
2023/08/14 09:21:45;;;;;;;3.80;2.42;;;;;;;27.14;87.58;100306.97;5070103;28;20044;-77
2023/08/14 09:24:15;;;;;;;5.85;2.40;;;;;;;26.68;88.81;100311.50;5081217;28;20060;-78
2023/08/14 09:26:44;;;;;;;;;;;;;;;26.20;93.91;100302.50;5064716;28;20044;-79
2023/08/14 09:29:13;;;;;;;7.40;2.75;;;;;;;25.84;97.90;100293.94;5044265;28;20010;-78
2023/08/14 09:31:45;;;;;;;3.97;2.58;;;;;;;25.82;99.67;100303.28;5057415;28;20094;-78
2023/08/14 09:34:18;;;;;;;7.97;3.10;;;;;;;25.88;98.85;100299.88;5066801;28;20139;-78
2023/08/14 09:36:47;;;;;;;3.70;2.40;;;;;;;25.65;99.10;100263.66;5063625;28;20049;-78
2023/08/14 09:39:18;;;;;;;4.88;3.00;;;;;;;25.95;100.00;100290.03;5066945;28;20048;-78
2023/08/14 09:41:48;;;;;;;4.97;2.75;;;;;;;26.11;100.00;100287.28;5065778;28;20045;-79
2023/08/14 09:44:19;;;;;;;5.77;2.87;;;;;;;26.30;95.62;100277.88;5076501;28;20055;-78
2023/08/14 09:46:51;;;;;;;4.70;2.90;;;;;;;26.53;96.04;100281.53;5063238;28;20483;-78
2023/08/14 09:49:20;;;;;;;7.50;3.30;;;;;;;26.46;96.51;100266.94;5060398;28;20099;-78
2023/08/14 09:51:58;;;;;;;5.75;3.38;;;;;;;26.64;95.25;100266.69;5071641;28;20045;-79
2023/08/14 09:54:32;;;;;;;3.80;2.83;;;;;;;26.90;93.10;100275.38;5067652;28;20044;-77
2023/08/14 09:57:04;;;;;;;4.80;3.03;;;;;;;26.99;89.85;100265.31;5065666;28;20041;-77
2023/08/14 09:59:36;;;;;;;6.45;3.40;;;;;;;26.92;92.64;100277.88;5032387;28;20531;-78
2023/08/14 10:02:09;;;;;;;;;;;;;;;26.76;96.81;100280.72;5066505;28;20471;-79
2023/08/14 10:04:39;;;;;;;5.10;3.28;;;;;;;26.40;98.78;100275.81;5068011;28;20461;-79
2023/08/14 10:07:09;;;;;;;3.58;2.85;;;;;;;26.39;100.00;100281.44;5066517;28;20056;-79
2023/08/14 10:09:41;;;;;;;8.10;3.50;;;;;;;26.43;100.00;100277.34;5057843;28;20058;-78
2023/08/14 10:12:13;;;;;;;6.85;3.90;;;;;;;26.09;100.00;100275.75;5072377;28;20048;-78
2023/08/14 10:14:46;;;;;;;6.88;3.30;;;;;;;25.89;100.00;100279.03;5074412;28;20068;-78
2023/08/14 10:17:21;;;;;;;5.80;3.47;;;;;;;25.93;100.00;100283.94;5070989;28;20044;-79
2023/08/14 10:19:53;;;;;;;5.95;3.50;;;;;;;25.92;100.00;100282.25;5064612;28;20079;-80
2023/08/14 10:22:31;;;;;;;6.35;3.70;;;;;;;26.11;100.00;100281.00;5050107;28;20112;-77
2023/08/14 10:25:04;;;;;;;3.85;3.20;;;;;;;26.47;100.00;100281.38;5045416;28;20319;-78
2023/08/14 10:27:37;;;;;;;6.75;3.38;;;;;;;26.78;100.00;100268.63;5059335;28;20103;-78
2023/08/14 10:30:09;;;;;;;5.75;3.75;;;;;;;26.76;99.16;100276.13;5055912;28;20052;-76
2023/08/14 10:32:41;;;;;;;3.83;3.13;;;;;;;26.65;100.00;100272.97;5057252;28;20702;-77
2023/08/14 10:35:11;;;;;;;4.75;3.28;;;;;;;26.97;99.68;100272.78;5061237;28;20076;-78
2023/08/14 10:37:46;;;;;;;7.18;3.70;;;;;;;27.04;98.71;100273.78;5063825;28;20466;-78
2023/08/14 10:43:26;;;;;;;6.65;3.50;;;;;;;27.47;95.34;100274.09;5021193;28;20060;-69
2023/08/14 10:45:54;;;;;;;3.50;2.85;;;;;;;27.88;94.84;100271.81;5005556;28;20088;-70
2023/08/14 10:48:26;;;;;;;3.97;2.90;;;;;;;28.17;89.98;100287.34;5014155;28;20452;-71
2023/08/14 10:51:01;;;;;;;5.18;3.55;;;;;;;28.21;88.34;100284.06;5021131;28;20077;-70
2023/08/14 10:53:31;;;;;;;6.93;3.97;;;;;;;27.77;90.35;100294.91;5023216;28;20064;-69
2023/08/14 10:55:59;;;;;;;6.20;3.67;;;;;;;27.56;94.97;100290.16;5026119;28;20080;-70
2023/08/14 10:58:38;;;;;;;6.90;3.78;;;;;;;27.25;95.00;100281.22;5019390;28;20064;-69
2023/08/14 11:01:08;;;;;;;5.45;3.45;;;;;;;27.17;97.81;100292.19;5024679;28;20054;-70
2023/08/14 11:03:56;;;;;;;7.07;4.15;;;;;;;27.38;98.02;100286.94;5018352;28;20069;-70
2023/08/14 11:06:27;;;;;;;4.70;3.63;;;;;;;27.48;97.62;100284.78;5015180;28;20080;-71
2023/08/14 11:09:00;;;;;;;4.78;3.40;;;;;;;27.57;96.30;100291.00;5031376;28;20045;-70
2023/08/14 11:11:29;;;;;;;7.38;3.97;;;;;;;27.69;95.33;100299.59;5020781;28;20132;-69
2023/08/14 11:13:57;;;;;;;6.15;3.72;;;;;;;27.84;91.10;100295.88;5031507;28;20536;-70
2023/08/14 11:16:26;;;;;;;7.57;3.20;;;;;;;28.17;88.85;100298.22;5011729;28;20235;-70
2023/08/14 11:18:57;;;;;;;5.07;2.95;;;;;;;28.26;87.66;100302.56;5008429;28;20180;-72
2023/08/14 11:21:26;;;;;;;5.82;3.50;;;;;;;28.08;87.36;100305.63;5023319;28;20456;-69
2023/08/14 11:24:00;;;;;;;3.10;2.42;;;;;;;28.01;85.88;100303.84;5023717;28;20049;-70
2023/08/14 11:26:31;;;;;;;3.70;2.58;;;;;;;28.05;90.71;100296.97;5031891;28;20075;-69
2023/08/14 11:29:01;;;;;;;4.40;3.05;;;;;;;28.19;89.31;100307.91;5006974;28;20042;-70
2023/08/14 11:31:29;;;;;;;4.32;3.03;;;;;;;28.37;89.21;100299.34;5024590;28;20055;-70
2023/08/14 11:34:06;;;;;;;3.17;2.53;;;;;;;28.45;83.81;100304.72;5000640;28;20044;-70